Time;durP1;ratioP1;P1;durP2;ratioP2;P2;SDS_P1;SDS_P2;PMS_P1;PMS_P2;Temp;Humidity;BMP_temperature;BMP_pressure;BME280_temperature;BME280_humidity;BME280_pressure;Samples;Min_cycle;Max_cycle;Signal;HPM_P1;HPM_P2
2021/11/17 02:27:40;;;;;;;19.52;2.38;;;9.20;83.10;;;;;;4843027;29;20069;-75
2021/11/17 02:30:12;;;;;;;20.88;3.05;;;9.00;83.20;;;;;;4842551;29;20058;-76
2021/11/17 02:32:55;;;;;;;18.67;2.80;;;8.90;83.40;;;;;;4842154;29;20073;-75
2021/11/17 02:35:42;;;;;;;14.07;2.13;;;8.80;83.60;;;;;;4836990;29;20046;-76
2021/11/17 02:38:28;;;;;;;17.65;2.35;;;8.80;83.60;;;;;;4826424;29;20065;-76
2021/11/17 02:41:37;;;;;;;22.00;3.40;;;8.70;83.70;;;;;;4826339;29;20065;-76
2021/11/17 02:44:21;;;;;;;19.63;2.58;;;8.60;83.90;;;;;;4842158;29;20054;-75
2021/11/17 02:46:52;;;;;;;23.27;2.83;;;8.50;84.00;;;;;;4826880;29;20057;-76
2021/11/17 02:49:41;;;;;;;30.92;3.15;;;8.50;84.10;;;;;;4825578;29;20042;-76
2021/11/17 02:52:27;;;;;;;17.38;2.60;;;8.30;84.20;;;;;;4800211;29;20425;-76
2021/11/17 02:55:18;;;;;;;25.45;3.70;;;8.30;84.50;;;;;;4840087;29;20046;-76
2021/11/17 02:58:04;;;;;;;21.52;2.97;;;8.20;84.60;;;;;;4823340;29;20061;-76
2021/11/17 03:00:40;;;;;;;24.52;4.00;;;8.10;84.80;;;;;;4842638;29;20046;-75
2021/11/17 03:03:43;;;;;;;25.40;2.95;;;8.00;84.90;;;;;;4841195;29;20042;-76
2021/11/17 03:06:16;;;;;;;20.77;3.47;;;8.00;84.90;;;;;;4842345;29;20060;-76
2021/11/17 03:09:11;;;;;;;23.85;3.95;;;7.90;84.90;;;;;;4841856;29;20476;-76
2021/11/17 03:12:01;;;;;;;21.05;3.00;;;7.90;84.90;;;;;;4841955;29;20053;-76
2021/11/17 03:14:47;;;;;;;23.00;2.90;;;7.80;84.90;;;;;;4811837;29;20079;-76
2021/11/17 03:17:17;;;;;;;29.27;3.38;;;7.80;84.80;;;;;;4838949;29;20094;-76
2021/11/17 03:20:00;;;;;;;19.83;3.00;;;7.80;84.80;;;;;;4841520;29;20053;-76
2021/11/17 03:22:46;;;;;;;25.40;3.10;;;7.80;84.90;;;;;;4834840;29;20378;-75
2021/11/17 03:25:24;;;;;;;32.28;3.35;;;7.70;84.90;;;;;;4841326;29;20515;-76
2021/11/17 03:28:20;;;;;;;34.97;4.15;;;7.70;85.10;;;;;;4825813;29;20058;-75
2021/11/17 03:31:07;;;;;;;22.70;3.90;;;7.70;85.10;;;;;;4841056;29;20523;-75
2021/11/17 03:34:06;;;;;;;31.40;3.60;;;7.70;85.20;;;;;;4840559;29;20061;-75
2021/11/17 03:37:07;;;;;;;30.40;3.88;;;7.70;85.20;;;;;;4841615;29;20428;-75
2021/11/17 03:39:51;;;;;;;23.20;3.13;;;7.60;85.20;;;;;;4819605;29;20439;-75
2021/11/17 03:42:44;;;;;;;26.50;4.03;;;7.60;85.20;;;;;;4841600;29;20050;-75
2021/11/17 03:45:30;;;;;;;29.92;3.72;;;7.60;85.10;;;;;;4824471;29;20053;-75
2021/11/17 03:48:35;;;;;;;29.02;3.90;;;7.60;85.10;;;;;;4825858;29;20049;-75
2021/11/17 03:51:12;;;;;;;25.92;3.72;;;7.50;85.10;;;;;;4824355;29;20531;-76
2021/11/17 03:53:52;;;;;;;22.85;3.38;;;7.40;85.20;;;;;;4840860;29;20050;-75
2021/11/17 03:56:38;;;;;;;24.27;3.30;;;7.40;85.40;;;;;;4840881;29;20061;-75
2021/11/17 03:59:08;;;;;;;24.05;2.97;;;7.30;85.50;;;;;;4840715;29;20068;-75
2021/11/17 04:02:23;;;;;;;26.30;3.80;;;7.30;85.60;;;;;;4840735;29;20505;-75
2021/11/17 04:05:15;;;;;;;21.73;3.08;;;7.30;85.70;;;;;;4824845;29;20058;-75
2021/11/17 04:08:01;;;;;;;27.02;3.75;;;7.20;85.80;;;;;;4841180;29;20292;-75
2021/11/17 04:10:47;;;;;;;19.52;3.20;;;7.20;85.90;;;;;;4823745;29;20515;-75
2021/11/17 04:13:17;;;;;;;27.42;3.70;;;7.10;86.00;;;;;;4840527;29;20412;-75
2021/11/17 04:16:00;;;;;;;29.48;3.83;;;7.10;86.10;;;;;;4809413;29;20057;-75
2021/11/17 04:18:40;;;;;;;33.38;3.72;;;7.10;86.10;;;;;;4838567;29;20046;-75
2021/11/17 04:21:29;;;;;;;36.78;4.00;;;7.00;86.20;;;;;;4840325;29;20054;-75
2021/11/17 04:24:17;;;;;;;27.70;3.85;;;6.90;86.40;;;;;;4841167;29;20409;-75
2021/11/17 04:27:13;;;;;;;35.17;4.90;;;6.90;86.60;;;;;;4831738;29;20069;-75
2021/11/17 04:29:43;;;;;;;23.58;3.47;;;6.90;86.70;;;;;;4838403;29;20420;-75
2021/11/17 04:32:32;;;;;;;32.63;4.07;;;6.90;86.80;;;;;;4840888;29;20053;-75
2021/11/17 04:35:24;;;;;;;27.85;4.35;;;6.90;86.90;;;;;;4840431;29;20050;-75
2021/11/17 04:37:58;;;;;;;24.20;4.00;;;6.80;86.90;;;;;;4840402;29;20061;-75
2021/11/17 04:40:25;;;;;;;31.10;3.78;;;6.90;86.90;;;;;;4840665;29;20046;-75
2021/11/17 04:43:15;;;;;;;32.30;4.05;;;7.00;86.80;;;;;;4840798;29;20046;-75
2021/11/17 04:46:01;;;;;;;29.48;4.18;;;6.90;86.80;;;;;;4824401;29;20358;-75
2021/11/17 04:48:56;;;;;;;30.90;4.47;;;6.90;86.90;;;;;;4840601;29;20064;-75
2021/11/17 04:51:43;;;;;;;22.55;3.88;;;6.80;86.90;;;;;;4840714;29;20038;-75
2021/11/17 04:54:26;;;;;;;33.47;4.13;;;6.80;87.00;;;;;;4800228;29;20066;-75
2021/11/17 04:57:09;;;;;;;25.73;4.15;;;6.80;87.00;;;;;;4820277;29;20054;-76
2021/11/17 04:59:58;;;;;;;29.75;4.20;;;6.80;87.00;;;;;;4840779;29;20049;-75
2021/11/17 05:02:41;;;;;;;28.77;3.75;;;6.80;87.00;;;;;;4840403;29;20049;-75
2021/11/17 05:05:36;;;;;;;19.58;3.25;;;6.80;87.00;;;;;;4823944;29;20046;-76
2021/11/17 05:08:23;;;;;;;19.42;3.22;;;6.70;87.10;;;;;;4834258;29;20046;-75
2021/11/17 05:10:50;;;;;;;29.77;3.30;;;6.70;87.20;;;;;;4823087;29;20524;-75
2021/11/17 05:13:42;;;;;;;26.73;3.30;;;6.70;87.30;;;;;;4811629;29;20050;-75
2021/11/17 05:16:28;;;;;;;29.30;3.70;;;6.80;87.50;;;;;;4840717;29;20049;-75
2021/11/17 05:18:55;;;;;;;25.75;3.25;;;6.80;87.50;;;;;;4842890;29;20513;-75
2021/11/17 05:21:31;;;;;;;20.73;3.40;;;6.70;87.40;;;;;;4843602;29;20050;-75
2021/11/17 05:24:25;;;;;;;30.30;3.83;;;6.70;87.40;;;;;;4843936;29;20501;-75
2021/11/17 05:27:24;;;;;;;24.90;3.30;;;6.70;87.50;;;;;;4844232;29;20057;-75
2021/11/17 05:30:09;;;;;;;34.30;3.70;;;6.70;87.60;;;;;;4821240;29;20397;-75
2021/11/17 05:32:46;;;;;;;34.92;4.03;;;6.80;87.70;;;;;;4839659;29;20046;-75
2021/11/17 05:35:38;;;;;;;32.50;3.65;;;6.80;87.70;;;;;;4843394;29;20072;-76
2021/11/17 05:38:26;;;;;;;34.90;4.22;;;6.80;87.70;;;;;;4842655;29;20050;-76
2021/11/17 05:40:57;;;;;;;25.73;3.72;;;6.90;87.60;;;;;;4824389;29;20054;-76
2021/11/17 05:43:45;;;;;;;29.77;4.13;;;6.90;87.80;;;;;;4844121;29;20057;-76
2021/11/17 05:46:18;;;;;;;33.78;4.03;;;7.00;87.90;;;;;;4840072;29;20058;-75
2021/11/17 05:48:58;;;;;;;36.97;4.85;;;7.00;87.90;;;;;;4826309;29;20054;-76
2021/11/17 05:51:41;;;;;;;29.27;4.05;;;7.10;88.00;;;;;;4838591;29;20069;-76
2021/11/17 05:54:17;;;;;;;29.58;4.00;;;7.00;88.00;;;;;;4843195;29;20058;-75
2021/11/17 05:57:07;;;;;;;27.60;3.60;;;7.00;88.00;;;;;;4843076;29;20053;-76
2021/11/17 05:59:50;;;;;;;38.53;5.30;;;7.00;88.10;;;;;;4832547;29;20050;-75
2021/11/17 06:02:23;;;;;;;28.50;4.65;;;6.90;88.20;;;;;;4831852;29;20042;-76
2021/11/17 06:04:53;;;;;;;26.55;4.05;;;6.80;88.40;;;;;;4842242;29;20050;-75
2021/11/17 06:07:20;;;;;;;30.50;3.78;;;6.70;88.80;;;;;;4843251;29;20049;-75
2021/11/17 06:09:48;;;;;;;27.52;3.22;;;6.70;89.10;;;;;;4823332;29;20050;-75
2021/11/17 06:12:17;;;;;;;29.13;3.45;;;6.70;89.40;;;;;;4842058;29;20493;-75
2021/11/17 06:14:50;;;;;;;35.72;3.97;;;6.70;89.40;;;;;;4842807;29;20080;-75
2021/11/17 06:17:24;;;;;;;34.33;4.80;;;6.70;89.60;;;;;;4825662;29;20393;-75
2021/11/17 06:19:53;;;;;;;30.05;4.30;;;6.70;89.50;;;;;;4843192;29;20053;-76
2021/11/17 06:22:24;;;;;;;32.80;3.97;;;6.80;89.50;;;;;;4826476;29;20045;-76
2021/11/17 06:24:53;;;;;;;36.08;4.43;;;6.80;89.40;;;;;;4810118;29;20065;-75
2021/11/17 06:27:26;;;;;;;32.22;3.65;;;6.80;89.50;;;;;;4795155;29;20543;-76
2021/11/17 06:29:58;;;;;;;32.65;3.97;;;6.70;89.50;;;;;;4822959;29;20412;-76
2021/11/17 06:32:28;;;;;;;31.13;4.50;;;6.70;89.40;;;;;;4835249;29;20057;-75
2021/11/17 06:34:58;;;;;;;36.05;4.80;;;6.80;89.30;;;;;;4840735;29;20057;-76
2021/11/17 06:37:29;;;;;;;28.88;3.47;;;6.90;89.10;;;;;;4842918;29;20065;-75
2021/11/17 06:39:59;;;;;;;20.85;3.30;;;7.00;88.90;;;;;;4797975;29;20069;-76
2021/11/17 06:42:35;;;;;;;16.63;3.25;;;7.00;88.60;;;;;;4826150;29;20092;-76
2021/11/17 06:45:10;;;;;;;32.22;4.32;;;7.10;88.30;;;;;;4825736;29;20058;-75
2021/11/17 06:47:38;;;;;;;22.40;3.15;;;7.20;88.10;;;;;;4822117;29;20412;-76
2021/11/17 06:50:06;;;;;;;27.00;4.70;;;7.30;87.70;;;;;;4841322;29;20049;-75
2021/11/17 06:52:33;;;;;;;20.08;3.42;;;7.30;87.40;;;;;;4825483;29;20397;-75
2021/11/17 06:55:02;;;;;;;25.88;3.72;;;7.30;87.20;;;;;;4836016;29;20413;-76
2021/11/17 06:57:29;;;;;;;17.05;3.30;;;7.30;87.00;;;;;;4825711;29;20060;-76
2021/11/17 06:59:57;;;;;;;23.88;3.67;;;7.20;86.90;;;;;;4841300;29;20069;-75
2021/11/17 07:02:25;;;;;;;22.08;3.25;;;7.20;86.90;;;;;;4829096;29;20053;-75
2021/11/17 07:04:52;;;;;;;25.02;3.20;;;7.10;87.10;;;;;;4825459;29;20058;-76
2021/11/17 07:07:20;;;;;;;28.17;3.65;;;7.00;87.10;;;;;;4823391;29;20524;-76
2021/11/17 07:09:48;;;;;;;28.42;3.70;;;7.00;87.20;;;;;;4839463;29;20457;-76
2021/11/17 07:12:15;;;;;;;25.90;3.85;;;6.90;87.30;;;;;;4825648;29;20400;-75
2021/11/17 07:14:44;;;;;;;23.45;3.63;;;6.90;87.30;;;;;;4841558;29;20084;-75
2021/11/17 07:17:12;;;;;;;32.08;3.15;;;6.90;87.30;;;;;;4822247;29;20532;-75
2021/11/17 07:19:40;;;;;;;25.45;4.00;;;6.90;87.40;;;;;;4843347;29;20496;-75
2021/11/17 07:22:09;;;;;;;26.30;3.78;;;6.90;87.40;;;;;;4826958;29;20050;-75
2021/11/17 07:24:38;;;;;;;26.90;3.53;;;6.90;87.30;;;;;;4829589;29;20061;-76
2021/11/17 07:27:12;;;;;;;20.77;3.40;;;7.00;87.10;;;;;;4856590;29;20432;-76
2021/11/17 07:29:39;;;;;;;25.33;3.95;;;7.00;87.00;;;;;;4835859;29;20057;-76
2021/11/17 07:32:07;;;;;;;30.38;3.50;;;6.90;86.90;;;;;;4845908;29;20049;-75
2021/11/17 07:34:35;;;;;;;25.55;3.15;;;6.90;86.80;;;;;;4852071;29;20078;-75
2021/11/17 07:37:03;;;;;;;27.55;3.70;;;6.80;87.00;;;;;;4839400;29;20053;-75
2021/11/17 07:39:31;;;;;;;21.10;3.28;;;6.80;87.10;;;;;;4842966;29;20046;-75
2021/11/17 07:41:59;;;;;;;31.60;3.85;;;6.70;87.20;;;;;;4843649;29;20057;-75
2021/11/17 07:44:27;;;;;;;24.58;3.88;;;6.70;87.30;;;;;;4840358;29;20531;-76
2021/11/17 07:46:57;;;;;;;27.25;4.15;;;6.60;87.40;;;;;;4851238;29;20504;-75
2021/11/17 07:49:27;;;;;;;25.65;4.03;;;6.50;87.50;;;;;;4831876;29;20054;-75
2021/11/17 07:51:55;;;;;;;26.45;4.03;;;6.50;87.70;;;;;;4841985;29;20054;-75
2021/11/17 07:54:25;;;;;;;22.08;3.90;;;6.50;87.80;;;;;;4837882;29;20050;-75
2021/11/17 07:56:54;;;;;;;30.35;4.18;;;6.40;88.10;;;;;;4837076;29;20062;-74
2021/11/17 07:59:25;;;;;;;26.13;3.80;;;6.30;88.10;;;;;;4835919;29;20054;-74
2021/11/17 08:01:55;;;;;;;30.92;4.38;;;6.30;88.30;;;;;;4826844;29;20350;-76
2021/11/17 08:04:24;;;;;;;26.52;4.05;;;6.30;88.50;;;;;;4819080;29;20055;-75
2021/11/17 08:06:52;;;;;;;28.65;4.68;;;6.30;88.50;;;;;;4810413;29;20049;-75
2021/11/17 08:09:20;;;;;;;33.83;3.88;;;6.30;88.60;;;;;;4841447;29;20073;-75
2021/11/17 08:11:47;;;;;;;25.05;3.20;;;6.30;88.50;;;;;;4840168;29;20041;-76
2021/11/17 08:14:16;;;;;;;26.58;4.22;;;6.30;88.50;;;;;;4840185;29;20053;-75
2021/11/17 08:16:44;;;;;;;34.00;4.40;;;6.30;88.40;;;;;;4837561;29;20083;-75
2021/11/17 08:19:11;;;;;;;27.20;4.40;;;6.40;88.30;;;;;;4823462;29;20389;-75
2021/11/17 08:21:39;;;;;;;30.02;4.85;;;6.40;88.30;;;;;;4840938;29;20058;-75
2021/11/17 08:24:07;;;;;;;27.80;4.10;;;6.50;88.30;;;;;;4840328;29;20065;-75
2021/11/17 08:26:34;;;;;;;23.58;4.13;;;6.50;88.30;;;;;;4825060;29;20083;-75
2021/11/17 08:29:02;;;;;;;34.30;4.28;;;6.60;88.20;;;;;;4841556;29;20058;-75
2021/11/17 08:31:31;;;;;;;31.67;4.60;;;6.70;88.20;;;;;;4841440;29;20046;-75
2021/11/17 08:33:58;;;;;;;21.27;3.70;;;6.70;88.20;;;;;;4840969;29;20050;-75
2021/11/17 08:36:26;;;;;;;24.30;4.28;;;6.70;88.20;;;;;;4841489;29;20054;-75
2021/11/17 08:38:54;;;;;;;36.88;4.90;;;6.80;88.20;;;;;;4841437;29;20401;-75
2021/11/17 08:41:25;;;;;;;33.67;4.50;;;6.80;88.20;;;;;;4825128;29;20065;-76
2021/11/17 08:43:53;;;;;;;41.03;4.85;;;6.80;88.30;;;;;;4824646;29;20054;-75
2021/11/17 08:46:21;;;;;;;26.00;3.67;;;6.80;88.30;;;;;;4825436;29;20594;-75
2021/11/17 08:48:50;;;;;;;34.50;4.35;;;6.90;88.30;;;;;;4828488;29;20433;-75
2021/11/17 08:51:19;;;;;;;27.85;4.25;;;6.90;88.30;;;;;;4845054;29;20245;-75
2021/11/17 08:53:48;;;;;;;23.95;3.92;;;7.00;88.40;;;;;;4844306;29;20061;-75
2021/11/17 08:56:16;;;;;;;27.52;4.57;;;7.00;88.40;;;;;;4828517;29;20400;-75
2021/11/17 08:58:44;;;;;;;31.10;4.25;;;7.10;88.30;;;;;;4844852;29;20057;-75
2021/11/17 09:01:13;;;;;;;33.70;4.45;;;7.20;88.20;;;;;;4844773;29;20061;-75
2021/11/17 09:03:41;;;;;;;33.70;4.07;;;7.30;88.20;;;;;;4844948;29;20049;-74
2021/11/17 09:06:11;;;;;;;26.70;3.20;;;7.30;87.90;;;;;;4844954;29;20061;-76
2021/11/17 09:08:40;;;;;;;29.25;4.25;;;7.40;87.70;;;;;;4844857;29;20057;-75
2021/11/17 09:11:12;;;;;;;22.80;3.45;;;7.50;87.60;;;;;;4844775;29;20050;-76
2021/11/17 09:13:40;;;;;;;25.70;3.83;;;7.60;87.40;;;;;;4828136;29;20042;-74
2021/11/17 09:16:08;;;;;;;29.83;3.78;;;7.60;86.90;;;;;;4844709;29;20057;-75
2021/11/17 09:18:39;;;;;;;18.75;2.80;;;7.70;86.60;;;;;;4844678;29;20424;-75
2021/11/17 09:21:12;;;;;;;24.33;4.03;;;7.80;86.30;;;;;;4827931;29;20060;-75
2021/11/17 09:23:40;;;;;;;26.33;3.47;;;7.80;86.10;;;;;;4828513;29;20042;-76
2021/11/17 09:26:09;;;;;;;30.02;4.93;;;7.80;86.10;;;;;;4844898;29;20361;-75
2021/11/17 09:28:38;;;;;;;25.70;3.72;;;7.90;86.00;;;;;;4844542;29;20045;-76
2021/11/17 09:31:08;;;;;;;28.10;3.92;;;7.90;85.80;;;;;;4844661;29;20061;-77
2021/11/17 09:33:45;;;;;;;28.38;3.70;;;8.00;85.80;;;;;;4827848;29;20060;-76
2021/11/17 09:36:15;;;;;;;26.52;3.50;;;8.10;85.70;;;;;;4828165;29;20053;-74
2021/11/17 09:38:43;;;;;;;23.55;3.55;;;8.10;85.50;;;;;;4844664;29;20050;-76
2021/11/17 09:41:14;;;;;;;22.50;4.03;;;8.20;85.40;;;;;;4827658;29;20057;-75
2021/11/17 09:43:46;;;;;;;23.55;3.65;;;8.20;85.30;;;;;;4845234;29;20042;-76
2021/11/17 09:46:24;;;;;;;22.40;3.75;;;8.20;85.20;;;;;;4844592;29;20058;-76
2021/11/17 09:49:14;;;;;;;30.45;4.25;;;8.30;85.20;;;;;;4844410;29;20045;-75
2021/11/17 09:51:46;;;;;;;20.95;3.28;;;8.30;85.00;;;;;;4827683;29;20054;-76
2021/11/17 09:54:38;;;;;;;24.33;3.15;;;8.30;85.00;;;;;;4843973;29;20053;-76
2021/11/17 09:57:16;;;;;;;30.00;3.97;;;8.40;84.80;;;;;;4843898;29;20053;-76
2021/11/17 09:59:51;;;;;;;27.65;3.83;;;8.50;84.70;;;;;;4843875;29;20061;-76
2021/11/17 10:02:55;;;;;;;18.25;3.08;;;8.70;84.60;;;;;;4844258;29;20049;-77
2021/11/17 10:14:09;;;;;;;23.35;3.50;;;8.80;83.30;;;;;;4843791;29;20046;-75
2021/11/17 10:16:38;;;;;;;27.85;3.72;;;8.80;83.50;;;;;;4812068;29;20061;-76
2021/11/17 10:19:41;;;;;;;20.38;3.33;;;8.80;83.70;;;;;;4842886;29;20057;-75
2021/11/17 10:22:13;;;;;;;30.42;4.32;;;8.80;84.00;;;;;;4787097;30;20521;-76
2021/11/17 10:24:50;;;;;;;22.77;3.45;;;8.80;84.30;;;;;;4786362;30;20055;-75
2021/11/17 10:27:45;;;;;;;25.20;3.50;;;8.80;84.60;;;;;;4786968;30;20055;-78
2021/11/17 10:30:24;;;;;;;29.08;3.92;;;8.80;84.60;;;;;;4786500;30;20063;-76
2021/11/17 10:33:22;;;;;;;23.65;3.90;;;8.80;84.60;;;;;;4787130;30;20051;-76
2021/11/17 10:36:20;;;;;;;29.88;3.80;;;8.90;84.40;;;;;;4768693;30;20570;-77
2021/11/17 10:38:53;;;;;;;26.52;3.80;;;9.00;84.30;;;;;;4768965;30;20052;-75
2021/11/17 10:41:29;;;;;;;24.20;3.03;;;9.00;84.30;;;;;;4768958;30;20055;-76
2021/11/17 10:44:03;;;;;;;23.02;2.83;;;9.10;83.90;;;;;;4768647;30;20503;-75
2021/11/17 10:46:40;;;;;;;21.73;3.33;;;9.10;83.80;;;;;;4769070;30;20059;-75
2021/11/17 10:49:16;;;;;;;25.02;4.25;;;9.20;83.60;;;;;;4768765;30;20060;-75
2021/11/17 10:51:49;;;;;;;22.67;3.35;;;9.20;83.60;;;;;;4754242;30;20470;-75
2021/11/17 10:54:23;;;;;;;20.95;3.78;;;9.20;83.50;;;;;;4776103;30;20059;-76
2021/11/17 10:57:16;;;;;;;26.58;3.38;;;9.30;83.20;;;;;;4814577;29;20050;-75
2021/11/17 10:59:43;;;;;;;21.63;3.78;;;9.30;83.20;;;;;;4824842;29;20054;-75
2021/11/17 11:02:11;;;;;;;28.73;3.97;;;9.40;83.00;;;;;;4824843;29;20486;-75
2021/11/17 11:05:04;;;;;;;24.50;4.10;;;9.40;82.80;;;;;;4834806;29;20050;-75
2021/11/17 11:07:34;;;;;;;19.95;3.40;;;9.60;82.80;;;;;;4842890;29;20065;-75
2021/11/17 11:10:05;;;;;;;27.02;3.90;;;9.60;82.40;;;;;;4842229;29;20050;-75
2021/11/17 11:12:35;;;;;;;16.02;3.13;;;9.70;82.20;;;;;;4842600;29;20416;-76
2021/11/17 11:15:17;;;;;;;27.30;3.88;;;9.80;82.00;;;;;;4842389;29;20057;-75
2021/11/17 11:18:03;;;;;;;25.63;3.40;;;9.80;81.50;;;;;;4842783;29;20061;-77
2021/11/17 11:20:48;;;;;;;27.05;3.15;;;9.90;81.60;;;;;;4826529;29;20493;-75
2021/11/17 11:23:21;;;;;;;29.45;4.00;;;10.10;81.50;;;;;;4826643;29;20052;-75
2021/11/17 11:26:01;;;;;;;18.95;3.53;;;10.20;81.10;;;;;;4842419;29;20042;-75
2021/11/17 11:28:32;;;;;;;19.48;3.92;;;10.50;80.40;;;;;;4826238;29;20061;-75
2021/11/17 11:31:11;;;;;;;13.55;2.45;;;10.70;80.00;;;;;;4826244;29;20318;-76
2021/11/17 11:33:56;;;;;;;24.05;4.03;;;10.70;79.40;;;;;;4842260;29;20412;-75
2021/11/17 11:36:23;;;;;;;28.27;4.07;;;10.60;78.70;;;;;;4826144;29;20081;-76
2021/11/17 11:38:57;;;;;;;22.63;3.90;;;10.50;78.30;;;;;;4841722;29;20520;-76
2021/11/17 11:41:46;;;;;;;24.20;4.15;;;10.50;78.20;;;;;;4826358;29;20057;-76
2021/11/17 11:44:23;;;;;;;28.67;3.00;;;10.80;78.20;;;;;;4837636;29;20498;-75
2021/11/17 11:47:10;;;;;;;22.52;3.75;;;11.10;78.30;;;;;;4824152;29;20508;-75
2021/11/17 11:49:47;;;;;;;16.13;2.75;;;11.30;76.80;;;;;;4824086;29;20382;-75
2021/11/17 11:52:20;;;;;;;29.48;3.72;;;11.30;76.50;;;;;;4824089;29;20050;-76
2021/11/17 11:54:51;;;;;;;25.95;3.80;;;11.30;76.40;;;;;;4823952;29;20413;-75
2021/11/17 11:57:32;;;;;;;20.48;3.75;;;11.30;76.60;;;;;;4823416;29;20065;-75
2021/11/17 12:00:10;;;;;;;21.70;3.53;;;11.50;76.60;;;;;;4824036;29;20546;-75
2021/11/17 12:02:54;;;;;;;20.85;3.05;;;11.80;75.30;;;;;;4824265;29;20057;-74
2021/11/17 12:05:40;;;;;;;22.95;3.00;;;12.00;74.40;;;;;;4823696;29;20065;-74
2021/11/17 12:08:19;;;;;;;22.20;3.25;;;12.30;74.00;;;;;;4822634;29;20058;-74
2021/11/17 12:11:05;;;;;;;17.15;3.35;;;12.70;73.90;;;;;;4823701;29;20062;-74
2021/11/17 12:13:37;;;;;;;22.23;3.88;;;13.20;72.60;;;;;;4816286;29;20046;-74
2021/11/17 12:16:19;;;;;;;24.48;3.85;;;13.30;72.10;;;;;;4823574;29;20065;-75
2021/11/17 12:18:55;;;;;;;23.38;4.30;;;13.10;71.80;;;;;;4823795;29;20397;-75
2021/11/17 12:21:25;;;;;;;27.52;4.28;;;13.20;70.30;;;;;;4823630;29;20058;-75
2021/11/17 12:24:13;;;;;;;29.95;4.93;;;13.10;69.50;;;;;;4823340;29;20050;-75
2021/11/17 12:26:47;;;;;;;19.38;3.15;;;13.30;68.50;;;;;;4823656;29;20057;-74
2021/11/17 12:29:15;;;;;;;16.75;3.47;;;13.60;66.80;;;;;;4823023;29;20057;-75
2021/11/17 12:31:57;;;;;;;13.75;3.13;;;13.70;66.80;;;;;;4821998;29;20528;-75
2021/11/17 12:34:59;;;;;;;22.25;3.92;;;13.90;65.60;;;;;;4823415;29;20042;-74
2021/11/17 12:37:46;;;;;;;19.85;3.97;;;14.20;64.30;;;;;;4822891;29;20065;-76
2021/11/17 12:40:44;;;;;;;24.23;3.55;;;14.50;63.70;;;;;;4823446;29;20057;-75
2021/11/17 12:43:34;;;;;;;19.98;3.58;;;14.80;62.80;;;;;;4823071;29;20050;-76
2021/11/17 12:46:22;;;;;;;30.27;4.07;;;14.80;63.10;;;;;;4811714;29;20529;-75
2021/11/17 12:48:55;;;;;;;17.48;2.85;;;14.50;63.40;;;;;;4823286;29;20058;-75
2021/11/17 12:51:32;;;;;;;20.08;3.17;;;14.50;63.80;;;;;;4823071;29;20512;-76
2021/11/17 12:54:03;;;;;;;19.83;3.35;;;14.60;61.80;;;;;;4823497;29;20047;-75
2021/11/17 12:56:35;;;;;;;19.70;2.97;;;14.50;61.50;;;;;;4822121;29;20061;-76
2021/11/17 12:59:14;;;;;;;21.98;4.13;;;14.30;60.80;;;;;;4823093;29;20042;-75
2021/11/17 13:01:49;;;;;;;27.98;4.50;;;13.90;62.00;;;;;;4823014;29;20288;-75
2021/11/17 13:04:29;;;;;;;20.90;3.60;;;13.50;63.90;;;;;;4806936;29;20058;-76
2021/11/17 13:07:02;;;;;;;25.20;3.45;;;13.20;64.40;;;;;;4823025;29;20067;-76
2021/11/17 13:09:51;;;;;;;21.88;3.13;;;12.90;65.50;;;;;;4819790;29;20080;-75
2021/11/17 13:12:26;;;;;;;21.60;3.25;;;12.60;66.20;;;;;;4822503;29;20062;-74
2021/11/17 13:15:08;;;;;;;20.30;3.47;;;12.30;66.80;;;;;;4791879;29;20055;-76
2021/11/17 13:17:43;;;;;;;19.08;2.70;;;12.20;67.50;;;;;;4805951;29;20062;-76
2021/11/17 13:20:13;;;;;;;26.80;4.22;;;12.00;68.00;;;;;;4823026;29;20047;-75
2021/11/17 13:22:46;;;;;;;23.38;3.80;;;11.90;68.50;;;;;;4823545;29;20069;-75
2021/11/17 13:25:21;;;;;;;24.65;3.88;;;11.90;69.30;;;;;;4823203;29;20073;-75
2021/11/17 13:28:15;;;;;;;22.88;3.60;;;11.80;69.20;;;;;;4821972;29;20054;-76
2021/11/17 13:30:48;;;;;;;18.50;3.63;;;11.80;69.80;;;;;;4821109;29;20054;-76
2021/11/17 13:33:25;;;;;;;24.15;3.75;;;11.80;70.10;;;;;;4824056;29;20054;-75
2021/11/17 13:36:13;;;;;;;19.63;3.25;;;11.80;70.00;;;;;;4825901;29;20074;-76
2021/11/17 13:38:54;;;;;;;21.65;4.00;;;11.80;70.20;;;;;;4816132;29;20058;-75
2021/11/17 13:41:41;;;;;;;17.00;3.17;;;11.80;70.50;;;;;;4825153;29;20054;-75
2021/11/17 13:44:10;;;;;;;21.35;3.15;;;11.80;70.80;;;;;;4825884;29;20397;-76
2021/11/17 13:46:59;;;;;;;21.17;3.55;;;11.70;71.00;;;;;;4826010;29;20050;-76
2021/11/17 13:49:28;;;;;;;26.98;3.35;;;11.60;71.00;;;;;;4824187;29;20066;-75
2021/11/17 13:51:57;;;;;;;23.67;4.20;;;11.50;70.90;;;;;;4825190;29;20073;-75
2021/11/17 13:54:25;;;;;;;24.58;3.42;;;11.50;70.80;;;;;;4825785;29;20059;-75
2021/11/17 13:56:53;;;;;;;18.10;3.70;;;11.40;70.20;;;;;;4824982;29;20061;-75
2021/11/17 13:59:22;;;;;;;24.20;3.65;;;11.40;70.30;;;;;;4824100;29;20061;-76
2021/11/17 14:01:50;;;;;;;17.38;3.10;;;11.30;70.40;;;;;;4825924;29;20054;-75
2021/11/17 14:04:17;;;;;;;27.90;4.53;;;11.30;70.30;;;;;;4825673;29;20061;-75
2021/11/17 14:06:45;;;;;;;19.17;3.40;;;11.30;70.30;;;;;;4825493;29;20547;-75
2021/11/17 14:09:16;;;;;;;35.15;4.07;;;11.30;70.50;;;;;;4825168;29;20046;-74
2021/11/17 14:11:43;;;;;;;19.13;3.28;;;11.30;70.50;;;;;;4823636;29;20421;-76
2021/11/17 14:14:11;;;;;;;21.20;3.05;;;11.30;70.80;;;;;;4825546;29;20042;-74
2021/11/17 14:16:39;;;;;;;22.98;3.95;;;11.40;71.00;;;;;;4825799;29;20050;-75
2021/11/17 14:19:08;;;;;;;20.95;3.10;;;11.40;70.90;;;;;;4825122;29;20059;-76
2021/11/17 14:21:36;;;;;;;23.63;3.20;;;11.40;70.60;;;;;;4825635;29;20054;-75
2021/11/17 14:24:05;;;;;;;17.48;3.17;;;11.40;70.30;;;;;;4825301;29;20046;-74
2021/11/17 14:26:33;;;;;;;19.85;3.08;;;11.50;70.20;;;;;;4825293;29;20474;-76
2021/11/17 14:29:15;;;;;;;26.73;3.55;;;11.50;70.40;;;;;;4824195;29;20057;-74
2021/11/17 14:31:47;;;;;;;21.65;3.50;;;11.50;70.00;;;;;;4823619;29;20061;-75
2021/11/17 14:34:16;;;;;;;17.83;3.00;;;11.50;69.50;;;;;;4824691;29;20054;-75
2021/11/17 14:36:49;;;;;;;25.63;3.42;;;11.50;69.30;;;;;;4808641;29;20309;-75
2021/11/17 14:39:20;;;;;;;25.52;3.22;;;11.50;69.70;;;;;;4824567;29;20042;-75
2021/11/17 14:41:49;;;;;;;26.70;3.22;;;11.40;69.90;;;;;;4825011;29;20061;-74
2021/11/17 14:44:16;;;;;;;21.35;2.90;;;11.40;70.40;;;;;;4824164;29;20054;-75
2021/11/17 14:46:44;;;;;;;16.17;2.95;;;11.40;70.70;;;;;;4824207;29;20046;-74
2021/11/17 14:49:12;;;;;;;19.55;3.00;;;11.40;70.70;;;;;;4824989;29;20557;-75
2021/11/17 14:51:41;;;;;;;19.17;2.88;;;11.40;70.70;;;;;;4824142;29;20062;-75
2021/11/17 14:54:09;;;;;;;22.63;3.55;;;11.30;70.60;;;;;;4825056;29;20497;-75
2021/11/17 14:56:38;;;;;;;20.33;3.47;;;11.30;70.90;;;;;;4824447;29;20047;-75
2021/11/17 14:59:07;;;;;;;21.40;3.38;;;11.30;71.10;;;;;;4824763;29;20497;-75
2021/11/17 15:01:40;;;;;;;24.52;3.00;;;11.20;71.40;;;;;;4824831;29;20378;-74
2021/11/17 15:04:09;;;;;;;14.77;3.08;;;11.20;71.60;;;;;;4838918;29;20428;-74
2021/11/17 15:06:39;;;;;;;25.02;3.35;;;11.10;70.80;;;;;;4826866;29;20072;-75
2021/11/17 15:09:09;;;;;;;21.80;3.15;;;11.00;71.10;;;;;;4842983;29;20054;-75
2021/11/17 15:12:00;;;;;;;20.17;3.58;;;11.00;71.40;;;;;;4826539;29;20054;-75
2021/11/17 15:14:30;;;;;;;22.40;3.10;;;11.00;71.70;;;;;;4826553;29;20072;-75
2021/11/17 15:16:58;;;;;;;21.83;3.67;;;11.00;71.90;;;;;;4835617;29;20051;-75
2021/11/17 15:19:26;;;;;;;18.75;3.33;;;10.90;72.30;;;;;;4824609;29;20065;-75
2021/11/17 15:21:55;;;;;;;17.08;3.13;;;10.90;72.60;;;;;;4825110;29;20508;-75
2021/11/17 15:24:31;;;;;;;15.15;3.53;;;10.90;72.50;;;;;;4821794;29;20493;-75
2021/11/17 15:27:25;;;;;;;20.25;4.65;;;10.80;72.40;;;;;;4824150;29;20058;-75
2021/11/17 15:29:53;;;;;;;;;;;10.80;72.70;;;;;;4817436;29;20077;-75
2021/11/17 15:32:22;;;;;;;23.45;3.30;;;10.70;73.10;;;;;;4814546;29;19932;-77
2021/11/17 15:34:50;;;;;;;17.55;2.65;;;10.70;73.30;;;;;;4811760;29;20083;-75
2021/11/17 15:37:18;;;;;;;27.45;3.17;;;10.70;73.60;;;;;;4822225;29;20409;-75
2021/11/17 15:39:46;;;;;;;19.50;2.75;;;10.60;73.80;;;;;;4821999;29;20057;-74
2021/11/17 15:42:14;;;;;;;25.92;4.15;;;10.50;74.10;;;;;;4821288;29;20053;-75
2021/11/17 15:44:41;;;;;;;23.08;2.85;;;10.50;74.70;;;;;;4808502;29;20079;-75
2021/11/17 15:47:10;;;;;;;19.95;2.75;;;10.50;75.20;;;;;;4807158;29;20498;-76
2021/11/17 15:49:41;;;;;;;24.88;3.17;;;10.50;75.40;;;;;;4800269;29;20047;-73
2021/11/17 15:52:10;;;;;;;25.50;3.30;;;10.50;75.70;;;;;;4813147;29;20066;-75
2021/11/17 15:54:38;;;;;;;20.15;2.97;;;10.40;76.10;;;;;;4824035;29;20046;-75
2021/11/17 15:57:06;;;;;;;14.52;2.70;;;10.40;76.20;;;;;;4816072;29;20071;-75
2021/11/17 15:59:34;;;;;;;18.67;3.72;;;10.40;75.90;;;;;;4823712;29;20046;-74
2021/11/17 16:02:03;;;;;;;27.88;3.85;;;10.40;76.20;;;;;;4823542;29;20494;-75
2021/11/17 16:04:31;;;;;;;24.35;3.33;;;10.30;76.50;;;;;;4807631;29;20058;-74